createdAt,value
2023-04-30T00:01:38.974Z,46.13
2023-04-30T00:04:06.434Z,48.03
2023-04-30T00:06:34.137Z,44.50
2023-04-30T00:09:01.713Z,45.65
2023-04-30T00:11:29.209Z,43.30
2023-04-30T00:13:57.213Z,42.97
2023-04-30T00:16:24.929Z,41.53
2023-04-30T00:18:52.387Z,43.63
2023-04-30T00:21:19.865Z,46.78
2023-04-30T00:23:47.324Z,45.72
2023-04-30T00:26:15.644Z,46.50
2023-04-30T00:28:47.393Z,43.92
2023-04-30T00:31:14.843Z,47.28
2023-04-30T00:33:42.369Z,48.55
2023-04-30T00:36:09.728Z,51.47
2023-04-30T00:38:37.079Z,52.85
2023-04-30T00:41:05.377Z,55.00
2023-04-30T00:43:34.350Z,56.40
2023-04-30T00:46:03.956Z,57.70
2023-04-30T00:48:31.671Z,60.42
2023-04-30T00:50:59.180Z,61.55
2023-04-30T00:53:27.193Z,64.40
2023-04-30T00:55:54.950Z,67.03
2023-04-30T00:58:22.315Z,71.38
2023-04-30T01:00:49.966Z,71.35
2023-04-30T01:03:17.660Z,72.88
2023-04-30T01:05:45.182Z,74.97
2023-04-30T01:08:13.237Z,76.00
2023-04-30T01:10:49.904Z,78.60
2023-04-30T01:13:40.612Z,81.50
2023-04-30T01:16:15.287Z,86.80
2023-04-30T01:18:49.758Z,77.75
2023-04-30T01:21:22.046Z,79.20
2023-04-30T01:24:21.789Z,79.95
2023-04-30T01:27:01.797Z,80.30
2023-04-30T01:29:29.951Z,77.63
2023-04-30T01:31:57.521Z,78.80
2023-04-30T01:34:25.081Z,75.63
2023-04-30T01:37:22.416Z,70.38
2023-04-30T01:39:56.431Z,79.50
2023-04-30T01:42:28.525Z,73.10
2023-04-30T01:44:56.138Z,78.13
2023-04-30T01:47:23.559Z,76.28
2023-04-30T01:50:09.316Z,76.28
2023-04-30T01:52:40.142Z,82.43
2023-04-30T01:55:15.871Z,78.72
2023-04-30T01:57:46.823Z,77.15
2023-04-30T02:00:15.183Z,77.47
2023-04-30T02:02:42.838Z,70.70
2023-04-30T02:05:10.539Z,65.85
2023-04-30T02:07:41.948Z,62.63
2023-04-30T02:10:09.904Z,64.07
2023-04-30T02:12:37.467Z,64.63
2023-04-30T02:15:05.923Z,59.40
2023-04-30T02:17:33.815Z,67.68
2023-04-30T02:20:01.300Z,63.20
2023-04-30T02:22:29.056Z,66.95
2023-04-30T02:24:57.427Z,72.22
2023-04-30T02:27:26.174Z,66.18
2023-04-30T02:29:54.537Z,63.72
2023-04-30T02:32:22.205Z,67.97
2023-04-30T02:34:49.930Z,67.65
2023-04-30T02:37:17.460Z,67.05
2023-04-30T02:39:44.905Z,59.55
2023-04-30T02:42:12.494Z,63.50
2023-04-30T02:44:40.018Z,66.57
2023-04-30T02:47:07.518Z,66.28
2023-04-30T02:49:35.021Z,68.15
2023-04-30T02:52:02.505Z,69.68
2023-04-30T02:54:30.294Z,67.60
2023-04-30T02:56:57.805Z,73.03
2023-04-30T02:59:25.266Z,67.05
2023-04-30T03:01:52.803Z,69.47
2023-04-30T03:04:22.398Z,66.20
2023-04-30T03:06:49.902Z,68.20
2023-04-30T03:09:18.045Z,67.85
2023-04-30T03:11:45.968Z,67.28
2023-04-30T03:14:13.383Z,68.43
2023-04-30T03:16:41.463Z,66.50
2023-04-30T03:19:09.264Z,64.13
2023-04-30T03:21:36.622Z,66.53
2023-04-30T03:24:04.141Z,68.72
2023-04-30T03:26:32.045Z,68.40
2023-04-30T03:29:00.844Z,69.13
2023-04-30T03:31:28.288Z,78.03
2023-04-30T03:33:55.949Z,76.65
2023-04-30T03:36:23.566Z,73.05
2023-04-30T03:38:51.270Z,61.90
2023-04-30T03:41:18.901Z,63.83
2023-04-30T03:43:46.452Z,66.13
2023-04-30T03:46:13.908Z,63.33
2023-04-30T03:48:41.421Z,58.15
2023-04-30T03:51:09.658Z,59.80
2023-04-30T03:53:37.259Z,63.42
2023-04-30T03:56:04.990Z,57.38
2023-04-30T03:58:32.965Z,66.35
2023-04-30T04:01:00.562Z,61.00
2023-04-30T04:03:28.161Z,58.58
2023-04-30T04:05:55.657Z,58.65
2023-04-30T04:08:23.481Z,64.50
2023-04-30T04:10:51.114Z,58.50
2023-04-30T04:13:18.544Z,54.88
2023-04-30T04:15:46.941Z,51.63
2023-04-30T04:18:14.483Z,50.63
2023-04-30T04:20:41.906Z,45.78
2023-04-30T04:23:09.469Z,44.08
2023-04-30T04:25:36.925Z,41.05
2023-04-30T04:28:04.441Z,39.45
2023-04-30T04:30:32.283Z,38.10
2023-04-30T04:33:00.603Z,38.30
2023-04-30T04:35:29.927Z,35.80
2023-04-30T04:37:57.837Z,29.38
2023-04-30T04:40:25.297Z,27.67
2023-04-30T04:42:52.942Z,26.77
2023-04-30T04:45:20.880Z,26.77
2023-04-30T04:47:49.937Z,19.85
2023-04-30T04:50:18.249Z,20.83
2023-04-30T04:52:45.903Z,20.73
2023-04-30T04:55:14.119Z,20.60
2023-04-30T04:57:42.619Z,20.67
2023-04-30T05:00:10.779Z,22.48
2023-04-30T05:02:38.404Z,20.98
2023-04-30T05:05:07.093Z,17.90
2023-04-30T05:07:35.249Z,19.02
2023-04-30T05:10:03.315Z,18.20
2023-04-30T05:12:31.138Z,20.92
2023-04-30T05:14:58.809Z,22.08
2023-04-30T05:17:26.514Z,21.83
2023-04-30T05:19:54.380Z,21.13
2023-04-30T05:22:22.193Z,21.00
2023-04-30T05:24:49.663Z,22.08
2023-04-30T05:27:17.281Z,20.02
2023-04-30T05:29:44.875Z,19.23
2023-04-30T05:32:12.374Z,15.60
2023-04-30T05:34:39.849Z,14.85
2023-04-30T05:37:07.250Z,14.65
2023-04-30T05:39:34.819Z,15.40
2023-04-30T05:42:03.531Z,16.25
2023-04-30T05:44:31.129Z,14.30
2023-04-30T05:46:58.627Z,18.02
2023-04-30T05:49:26.034Z,20.02
2023-04-30T05:51:53.373Z,19.73
2023-04-30T05:54:20.744Z,19.25
2023-04-30T05:56:48.187Z,24.77
2023-04-30T05:59:15.926Z,21.98
2023-04-30T06:01:43.626Z,23.38
2023-04-30T06:04:11.953Z,25.75
2023-04-30T06:06:42.402Z,25.65
2023-04-30T06:09:10.717Z,25.65
2023-04-30T06:11:38.165Z,27.77
2023-04-30T06:14:05.684Z,25.17
2023-04-30T06:16:33.256Z,27.30
2023-04-30T06:19:00.933Z,22.65
2023-04-30T06:21:28.395Z,23.02
2023-04-30T06:23:55.979Z,25.38
2023-04-30T06:26:23.398Z,25.48
2023-04-30T06:28:50.981Z,26.17
2023-04-30T06:31:18.749Z,24.75
2023-04-30T06:33:46.368Z,24.77
2023-04-30T06:36:13.801Z,25.50
2023-04-30T06:38:43.007Z,24.98
2023-04-30T06:41:10.701Z,26.20
2023-04-30T06:43:38.058Z,25.77
2023-04-30T06:46:07.022Z,27.38
2023-04-30T06:48:34.453Z,28.05
2023-04-30T06:51:02.096Z,25.73
2023-04-30T06:53:29.861Z,26.02
2023-04-30T06:55:57.383Z,24.17
2023-04-30T06:58:24.990Z,34.05
2023-04-30T07:00:52.539Z,24.50
2023-04-30T07:03:19.997Z,29.33
2023-04-30T07:05:47.517Z,31.00
2023-04-30T07:08:15.230Z,31.48
2023-04-30T07:10:42.639Z,33.00
2023-04-30T07:13:10.250Z,29.65
2023-04-30T07:15:37.688Z,36.75
2023-04-30T07:18:05.355Z,39.00
2023-04-30T07:20:33.713Z,37.55
2023-04-30T07:23:01.243Z,35.47
2023-04-30T07:25:28.819Z,34.75
2023-04-30T07:27:56.545Z,37.10
2023-04-30T07:30:25.141Z,35.97
2023-04-30T07:32:53.129Z,35.35
2023-04-30T07:35:20.587Z,34.53
2023-04-30T07:37:48.033Z,38.80
2023-04-30T07:40:25.514Z,36.47
2023-04-30T07:43:04.149Z,40.47
2023-04-30T07:45:32.036Z,40.08
2023-04-30T07:47:59.547Z,38.42
2023-04-30T07:50:28.731Z,37.42
2023-04-30T07:52:56.356Z,38.42
2023-04-30T07:55:23.761Z,31.85
2023-04-30T07:57:51.273Z,30.73
2023-04-30T08:00:19.006Z,31.95
2023-04-30T08:02:48.740Z,29.63
2023-04-30T08:05:16.440Z,28.55
2023-04-30T08:07:44.745Z,27.95
2023-04-30T08:10:12.271Z,26.60
2023-04-30T08:12:40.901Z,26.13
2023-04-30T08:15:08.615Z,27.55
2023-04-30T08:17:36.277Z,24.00
2023-04-30T08:20:04.604Z,20.95
2023-04-30T08:22:32.243Z,19.50
2023-04-30T08:25:02.055Z,17.63
2023-04-30T08:27:31.654Z,17.00
2023-04-30T08:29:59.375Z,15.95
2023-04-30T08:32:26.893Z,13.60
2023-04-30T08:34:55.369Z,12.05
2023-04-30T08:37:22.976Z,13.68
2023-04-30T08:39:50.521Z,12.35
2023-04-30T08:42:18.260Z,12.20
2023-04-30T08:44:46.775Z,15.98
2023-04-30T08:47:15.656Z,11.40
2023-04-30T08:49:44.723Z,12.20
2023-04-30T08:52:12.291Z,10.48
2023-04-30T08:54:39.775Z,13.60
2023-04-30T08:57:07.505Z,10.25
2023-04-30T08:59:35.067Z,14.15
2023-04-30T09:02:02.544Z,11.05
2023-04-30T09:04:30.082Z,9.70
2023-04-30T09:06:59.446Z,10.48
2023-04-30T09:09:32.048Z,7.18
2023-04-30T09:12:18.611Z,11.10
2023-04-30T09:15:19.006Z,8.13
2023-04-30T09:17:48.469Z,10.32
2023-04-30T09:20:17.614Z,10.15
2023-04-30T09:22:45.121Z,11.65
2023-04-30T09:25:12.651Z,8.95
2023-04-30T09:27:40.378Z,12.23
2023-04-30T09:30:08.155Z,11.30
2023-04-30T09:32:35.732Z,14.38
2023-04-30T09:35:03.205Z,9.55
2023-04-30T09:37:37.596Z,8.52
2023-04-30T09:40:06.185Z,7.25
2023-04-30T09:42:33.651Z,10.40
2023-04-30T09:45:01.096Z,7.53
2023-04-30T09:47:33.643Z,11.18
2023-04-30T09:50:01.423Z,9.70
2023-04-30T09:52:28.900Z,9.02
2023-04-30T09:54:56.342Z,7.38
2023-04-30T09:57:25.048Z,11.23
2023-04-30T09:59:54.146Z,9.60
2023-04-30T10:02:23.452Z,8.38
2023-04-30T10:04:57.014Z,9.23
2023-04-30T10:07:26.386Z,9.93
2023-04-30T10:09:53.866Z,9.90
2023-04-30T10:12:23.216Z,7.82
2023-04-30T10:14:58.224Z,7.40
2023-04-30T10:17:28.364Z,10.80
2023-04-30T10:19:57.751Z,8.85
2023-04-30T10:22:25.404Z,7.85
2023-04-30T10:24:53.880Z,7.80
2023-04-30T10:27:21.382Z,9.48
2023-04-30T10:29:48.895Z,7.53
2023-04-30T10:32:16.853Z,6.55
2023-04-30T10:34:51.370Z,8.65
2023-04-30T10:37:25.306Z,8.90
2023-04-30T10:39:53.182Z,12.85
2023-04-30T10:42:20.833Z,7.53
2023-04-30T10:44:48.937Z,7.68
2023-04-30T10:47:19.358Z,7.07
2023-04-30T10:49:50.068Z,6.50
2023-04-30T10:52:27.853Z,7.25
2023-04-30T10:54:55.602Z,7.85
2023-04-30T10:57:23.258Z,6.03
2023-04-30T10:59:54.821Z,7.43
2023-04-30T11:02:22.631Z,6.65
2023-04-30T11:05:08.635Z,8.93
2023-04-30T11:07:36.309Z,6.30
2023-04-30T11:10:04.198Z,6.45
2023-04-30T11:12:31.704Z,14.00
2023-04-30T11:15:01.642Z,7.40
2023-04-30T11:17:29.975Z,8.43
2023-04-30T11:20:00.909Z,7.85
2023-04-30T11:22:30.242Z,7.55
2023-04-30T11:25:00.628Z,7.30
2023-04-30T11:27:29.241Z,8.57
2023-04-30T11:29:57.630Z,8.35
2023-04-30T11:32:27.218Z,5.78
2023-04-30T11:34:55.553Z,7.65
2023-04-30T11:37:26.104Z,8.68
2023-04-30T11:39:54.035Z,7.57
2023-04-30T11:42:22.053Z,7.30
2023-04-30T11:44:49.456Z,6.88
2023-04-30T11:47:16.980Z,11.90
2023-04-30T11:49:44.628Z,8.50
2023-04-30T11:52:14.084Z,6.65
2023-04-30T11:54:41.533Z,7.72
2023-04-30T11:57:08.956Z,7.60
2023-04-30T11:59:42.378Z,6.22
2023-04-30T12:02:12.953Z,7.90
2023-04-30T12:04:43.916Z,8.15
2023-04-30T12:07:11.350Z,9.35
2023-04-30T12:09:55.388Z,7.78
2023-04-30T12:12:32.481Z,6.15
2023-04-30T12:15:00.162Z,7.40
2023-04-30T12:17:34.517Z,5.93
2023-04-30T12:20:02.321Z,6.47
2023-04-30T12:22:29.818Z,7.88
2023-04-30T12:24:57.794Z,6.35
2023-04-30T12:27:25.272Z,5.65
2023-04-30T12:29:55.094Z,5.63
2023-04-30T12:32:23.280Z,8.45
2023-04-30T12:34:51.718Z,6.68
2023-04-30T12:37:19.169Z,5.68
2023-04-30T12:39:48.066Z,8.30
2023-04-30T12:42:20.185Z,8.38
2023-04-30T12:44:47.800Z,7.35
2023-04-30T12:47:16.472Z,6.63
2023-04-30T12:49:46.993Z,6.10
2023-04-30T12:52:15.668Z,9.38
2023-04-30T12:54:44.125Z,6.35
2023-04-30T12:57:12.577Z,6.75
2023-04-30T12:59:41.192Z,5.35
2023-04-30T13:02:13.016Z,6.25
2023-04-30T13:04:41.155Z,5.93
2023-04-30T13:07:08.788Z,6.72
2023-04-30T13:09:36.884Z,6.05
2023-04-30T13:12:04.825Z,6.05
2023-04-30T13:14:33.168Z,8.30
2023-04-30T13:17:02.714Z,7.78
2023-04-30T13:19:30.429Z,6.28
2023-04-30T13:21:59.113Z,5.63
2023-04-30T13:24:26.631Z,6.43
2023-04-30T13:26:53.982Z,8.65
2023-04-30T13:29:21.396Z,9.13
2023-04-30T13:31:49.250Z,5.80
2023-04-30T13:34:16.752Z,8.40
2023-04-30T13:36:44.179Z,11.52
2023-04-30T13:39:11.961Z,6.32
2023-04-30T13:41:39.412Z,7.90
2023-04-30T13:44:06.874Z,9.55
2023-04-30T13:46:34.476Z,6.68
2023-04-30T13:49:02.058Z,6.47
2023-04-30T13:51:29.420Z,6.40
2023-04-30T13:53:56.963Z,8.27
2023-04-30T13:56:25.075Z,7.07
2023-04-30T13:58:52.520Z,8.75
2023-04-30T14:01:20.162Z,6.65
2023-04-30T14:03:48.406Z,7.47
2023-04-30T14:06:16.812Z,6.13
2023-04-30T14:08:44.219Z,4.75
2023-04-30T14:11:11.612Z,8.40
2023-04-30T14:13:39.293Z,7.90
2023-04-30T14:16:07.009Z,7.32
2023-04-30T14:18:34.425Z,7.22
2023-04-30T14:21:01.823Z,6.55
2023-04-30T14:23:29.564Z,8.88
2023-04-30T14:25:57.046Z,7.28
2023-04-30T14:28:24.550Z,5.60
2023-04-30T14:30:52.242Z,7.00
2023-04-30T14:33:19.733Z,8.50
2023-04-30T14:35:47.701Z,7.13
2023-04-30T14:38:15.362Z,5.88
2023-04-30T14:40:45.118Z,6.25
2023-04-30T14:43:12.604Z,6.03
2023-04-30T14:45:40.990Z,7.55
2023-04-30T14:48:08.625Z,7.68
2023-04-30T14:50:36.110Z,6.60
2023-04-30T14:53:04.197Z,7.60
2023-04-30T14:55:32.264Z,6.28
2023-04-30T15:00:29.578Z,5.13
2023-04-30T15:02:57.238Z,7.82
2023-04-30T15:05:24.744Z,6.57
2023-04-30T15:07:52.333Z,5.53
2023-04-30T15:10:19.939Z,7.22
2023-04-30T15:12:47.431Z,7.18
2023-04-30T15:15:16.228Z,5.88
2023-04-30T15:17:44.943Z,7.47
2023-04-30T15:20:12.560Z,10.52
2023-04-30T15:22:40.216Z,7.07
2023-04-30T15:25:08.095Z,6.53
2023-04-30T15:27:36.897Z,7.03
2023-04-30T15:30:04.611Z,6.20
2023-04-30T15:32:32.066Z,7.57
2023-04-30T15:34:59.768Z,6.03
2023-04-30T15:37:27.395Z,7.35
2023-04-30T15:39:57.247Z,10.23
2023-04-30T15:42:26.459Z,6.43
2023-04-30T15:44:59.344Z,9.05
2023-04-30T15:47:27.607Z,7.20
2023-04-30T15:49:55.446Z,11.23
2023-04-30T15:52:23.132Z,11.02
2023-04-30T15:54:51.260Z,7.15
2023-04-30T15:57:18.678Z,8.07
2023-04-30T15:59:46.255Z,8.00
2023-04-30T16:02:13.731Z,7.57
2023-04-30T16:04:41.508Z,5.88
2023-04-30T16:07:09.002Z,9.80
2023-04-30T16:09:36.358Z,7.65
2023-04-30T16:12:03.856Z,7.30
2023-04-30T16:14:31.685Z,7.95
2023-04-30T16:16:59.169Z,6.82
2023-04-30T16:19:26.765Z,8.80
2023-04-30T16:21:54.646Z,4.75
2023-04-30T16:24:22.160Z,7.45
2023-04-30T16:26:53.945Z,7.38
2023-04-30T16:29:22.351Z,9.77
2023-04-30T16:31:49.915Z,8.02
2023-04-30T16:34:17.367Z,7.53
2023-04-30T16:36:44.772Z,6.10
2023-04-30T16:39:12.471Z,6.85
2023-04-30T16:41:39.774Z,6.25
2023-04-30T16:44:07.698Z,6.13
2023-04-30T16:46:36.194Z,6.80
2023-04-30T16:49:04.204Z,5.28
2023-04-30T16:51:33.294Z,7.38
2023-04-30T16:54:00.847Z,4.13
2023-04-30T16:56:28.433Z,7.20
2023-04-30T16:58:55.958Z,7.43
2023-04-30T17:01:23.460Z,5.25
2023-04-30T17:03:51.559Z,5.80
2023-04-30T17:06:19.325Z,5.75
2023-04-30T17:08:47.279Z,4.63
2023-04-30T17:11:19.086Z,6.60
2023-04-30T17:13:46.694Z,7.03
2023-04-30T17:16:14.303Z,5.13
2023-04-30T17:18:41.911Z,4.85
2023-04-30T17:21:09.364Z,7.03
2023-04-30T17:23:37.108Z,7.45
2023-04-30T17:26:04.510Z,6.88
2023-04-30T17:28:33.116Z,5.28
2023-04-30T17:31:06.823Z,5.30
2023-04-30T17:33:34.628Z,4.53
2023-04-30T17:36:02.301Z,5.50
2023-04-30T17:38:29.778Z,3.03
2023-04-30T17:40:57.852Z,6.40
2023-04-30T17:43:25.889Z,6.07
2023-04-30T17:45:53.568Z,6.78
2023-04-30T17:48:21.443Z,6.07
2023-04-30T17:50:49.065Z,7.20
2023-04-30T17:53:16.974Z,8.88
2023-04-30T17:55:45.061Z,5.30
2023-04-30T17:58:13.359Z,4.95
2023-04-30T18:00:42.249Z,6.28
2023-04-30T18:03:09.890Z,8.18
2023-04-30T18:05:37.328Z,5.32
2023-04-30T18:08:05.352Z,5.60
2023-04-30T18:10:32.771Z,3.92
2023-04-30T18:13:00.314Z,5.55
2023-04-30T18:15:28.153Z,6.63
2023-04-30T18:17:55.814Z,5.53
2023-04-30T18:20:23.203Z,4.57
2023-04-30T18:22:50.696Z,6.88
2023-04-30T18:25:19.356Z,6.95
2023-04-30T18:27:46.807Z,5.53
2023-04-30T18:30:15.168Z,11.32
2023-04-30T18:32:49.269Z,5.38
2023-04-30T18:35:17.586Z,8.55
2023-04-30T18:37:45.005Z,5.68
2023-04-30T18:40:13.188Z,6.72
2023-04-30T18:42:40.779Z,5.75
2023-04-30T18:45:09.426Z,9.10
2023-04-30T18:47:39.756Z,6.22
2023-04-30T18:50:10.569Z,7.25
2023-04-30T18:52:38.224Z,5.32
2023-04-30T18:55:07.596Z,8.23
2023-04-30T18:57:35.509Z,6.90
2023-04-30T19:00:03.018Z,5.82
2023-04-30T19:02:30.741Z,8.52
2023-04-30T19:04:58.481Z,9.00
2023-04-30T19:07:26.213Z,4.85
2023-04-30T19:09:54.373Z,6.32
2023-04-30T19:12:22.200Z,6.30
2023-04-30T19:14:49.940Z,8.23
2023-04-30T19:17:20.173Z,6.00
2023-04-30T19:19:50.278Z,6.63
2023-04-30T19:22:17.792Z,11.85
2023-04-30T19:24:45.690Z,8.43
2023-04-30T19:27:15.881Z,5.90
2023-04-30T19:29:43.388Z,7.72
2023-04-30T19:32:11.134Z,6.13
2023-04-30T19:34:38.640Z,7.78
2023-04-30T19:37:06.078Z,7.60
2023-04-30T19:39:34.614Z,9.38
2023-04-30T19:42:02.080Z,7.55
2023-04-30T19:44:30.323Z,8.30
2023-04-30T19:46:58.383Z,9.35
2023-04-30T19:49:26.713Z,8.63
2023-04-30T19:51:55.302Z,9.38
2023-04-30T19:54:23.074Z,7.97
2023-04-30T19:56:54.757Z,9.98
2023-04-30T19:59:22.363Z,10.15
2023-04-30T20:01:52.879Z,7.97
2023-04-30T20:04:20.678Z,6.05
2023-04-30T20:06:48.473Z,14.90
2023-04-30T20:09:16.506Z,8.27
2023-04-30T20:11:49.583Z,10.77
2023-04-30T20:14:17.235Z,8.85
2023-04-30T20:16:46.052Z,7.75
2023-04-30T20:19:14.619Z,9.05
2023-04-30T20:21:42.713Z,8.07
2023-04-30T20:24:11.983Z,14.57
2023-04-30T20:26:40.956Z,13.10
2023-04-30T20:29:09.748Z,9.90
2023-04-30T20:31:37.980Z,18.92
2023-04-30T20:34:05.851Z,12.25
2023-04-30T20:36:34.400Z,13.40
2023-04-30T20:39:01.984Z,12.80
2023-04-30T20:41:31.092Z,12.40
2023-04-30T20:44:00.898Z,8.32
2023-04-30T20:46:29.260Z,10.38
2023-04-30T20:49:04.404Z,9.98
2023-04-30T20:51:32.757Z,11.23
2023-04-30T20:54:00.993Z,9.88
2023-04-30T20:56:29.184Z,12.25
2023-04-30T20:58:56.911Z,9.50
2023-04-30T21:01:24.586Z,13.35
2023-04-30T21:03:52.960Z,11.10
2023-04-30T21:06:20.711Z,12.30
2023-04-30T21:08:49.120Z,13.25
2023-04-30T21:11:16.922Z,11.70
2023-04-30T21:13:45.300Z,10.65
2023-04-30T21:16:16.705Z,14.48
2023-04-30T21:18:46.350Z,11.95
2023-04-30T21:21:14.032Z,13.23
2023-04-30T21:23:43.242Z,13.27
2023-04-30T21:26:13.143Z,13.15
2023-04-30T21:28:40.944Z,11.80
2023-04-30T21:31:09.178Z,12.65
2023-04-30T21:33:37.462Z,13.10
2023-04-30T21:36:05.412Z,12.50
2023-04-30T21:38:32.926Z,13.35
2023-04-30T21:41:00.431Z,12.38
2023-04-30T21:43:27.954Z,14.82
2023-04-30T21:45:55.494Z,13.55
2023-04-30T21:48:23.623Z,13.93
2023-04-30T21:50:51.212Z,12.75
2023-04-30T21:53:18.688Z,12.73
2023-04-30T21:55:46.359Z,15.18
2023-04-30T21:58:13.811Z,14.45
2023-04-30T22:00:41.435Z,19.83
2023-04-30T22:03:10.353Z,25.83
2023-04-30T22:05:40.000Z,16.08
2023-04-30T22:08:07.616Z,14.32
2023-04-30T22:10:35.085Z,14.25
2023-04-30T22:13:02.496Z,13.73
2023-04-30T22:15:37.284Z,13.10
2023-04-30T22:18:14.369Z,13.50
2023-04-30T22:20:41.874Z,16.98
2023-04-30T22:23:09.387Z,13.60
2023-04-30T22:25:36.941Z,13.40
2023-04-30T22:28:04.434Z,10.25
2023-04-30T22:30:31.953Z,15.45
2023-04-30T22:32:59.308Z,13.10
2023-04-30T22:35:28.092Z,12.02
2023-04-30T22:37:55.620Z,13.32
2023-04-30T22:40:23.334Z,10.75
2023-04-30T22:42:50.971Z,11.57
2023-04-30T22:45:18.669Z,13.73
2023-04-30T22:47:46.255Z,11.50
2023-04-30T22:50:14.088Z,10.40
2023-04-30T22:52:42.395Z,14.68
2023-04-30T22:55:09.954Z,13.40
2023-04-30T22:57:37.562Z,12.00
2023-04-30T23:00:05.839Z,13.93
2023-04-30T23:02:34.040Z,12.35
2023-04-30T23:05:01.754Z,15.88
2023-04-30T23:07:29.277Z,14.07
2023-04-30T23:09:56.802Z,13.05
2023-04-30T23:12:24.632Z,13.13
2023-04-30T23:14:52.480Z,12.43
2023-04-30T23:17:20.192Z,12.82
2023-04-30T23:19:47.856Z,15.68
2023-04-30T23:22:16.484Z,17.63
2023-04-30T23:24:43.990Z,14.85
2023-04-30T23:27:11.553Z,12.13
2023-04-30T23:29:39.488Z,14.45
2023-04-30T23:32:07.038Z,14.15
2023-04-30T23:34:34.789Z,18.45
2023-04-30T23:37:02.217Z,14.75
2023-04-30T23:39:29.991Z,13.73
2023-04-30T23:41:57.756Z,18.08
2023-04-30T23:44:25.180Z,16.23
2023-04-30T23:46:52.859Z,16.92
2023-04-30T23:49:24.534Z,21.48
2023-04-30T23:51:52.339Z,17.92
2023-04-30T23:54:20.999Z,19.00
2023-04-30T23:56:48.408Z,19.85
2023-04-30T23:59:16.230Z,18.38
